Chadron Municipal Airport Chadron US
ICAO: KCDR
IATA: CDR
Category: Medium
Scheduled Services: No

Elevation: 3297 ft
TransAlt. 18000 ft.

Airport Communications:
ASOS:118.05
DENVER CNTR:127.95
COLUMBUS RDO:122.5
CTAF/UNICOM:122.8

KCDR Zoom In..

If you have problems with the map follow the link
https://www.worldairports.se/pages/airport.php?
ICAO=KCDR

Runways:

(A) RW 02 length 5998 ft width 100 ft
ILS 110.90 / hdg 24

(B) RW 11 length 4400 ft width 75 ft
---- / hdg 114

(C) RW 20 length 5998 ft width 100 ft
---- / hdg 204

(D) RW 29 length 4400 ft width 75 ft
---- / hdg 294

Location; KCDR
Day. 19 / Time. 12.53 Zulu
* Altimeter: 30.12
* Temperature: 01° c. 33.8°f.
* Wind from: 300° Speed 08 kn.
Dewpoint: -02° c.
Visibility: 10 Statute Miles.
Clouds: Broken 12000 ft.

KCDR 191253Z AUTO 30008KT 10SM BKN120 01/M02 A3012 RMK AO2 SLP234 T00111022


Wind From 300°
Speed 08 kn.

 
 
jpsmedia.com for Web Design worldairports.se 2018   terms of use